South Washington, Indiana
Current Conditions -  °F | °C
As of 6:35 AM on Monday 20 Oct 2014 (Local Time) from KDCY Reporting Station
Scattered Clouds Scattered Clouds  
Wind Chill: 47°   Ceiling: Unl
Heat Index: 50°   Visibility: 10mi
Dew Point: 47°   Wind: 8mph
Humidity: 90%   Direction: 200°SSW
Pressure: 29.98"   Gusts: NA
Location:  38.6427°N, 87.1768°W
Report Text: KDCY 201135Z AUTO 20007KT 10SM SCT110 10/08 A2998 RMK AO2 T00990083
Loading
Personal Weather Stations






























Interactive Weather Map New forecast layout! Learn more

10-Day Weather Forecast

Advertisements
Track Severe Weather on mobile